Portada
METAR-TAF:

METAR-TAF

Aeroports :

Saipan, Illes Mariannes, Estats Units d'Amèrica

latitud: 15-07N, longitud: 145-44E, altitud: 66 m

Observació

L'informe es va fer fa 1 hora i 6 minuts, a les 07:54 UTC
Vent 6 kt del Est
Temperatura 25°C
Humitat 94%
Pressió 1011 hPa
Visibilitat: 16.1 km
Núvols disperses a una alçada de 2400 ft

METAR: PGSN 120754Z 09006KT 10SM SCT024 25/24 A2984 RMK AO2 SLP126 T02500244 $

Hora: 19:00 (09:00 UTC)

Pronòstic

L'informe es va fer fa 3 hores i 27 minuts, a les 05:33 UTC
Pronòstic vàlid del 12 a les 06 UTC al 13 a les 06 UTC
Vent 11 kt del Est
Visibilitat: 10 km
Núvols disperses a una alçada de 1800 ft
Núvols disperses a una alçada de 5000 ft
xàfecs en les proximitats

TAF: PGSN 120533Z 1206/1306 10011KT P6SM VCSH SCT018 SCT050

Observacions i pronòstics meteorològics de més de 4000 aeroports (METAR i TAF).

Les estacions disponibles són els punts grocs i vermells al mapa.

Posi el ratolí al punt desitjat per veure el nom de l'estació.

Feu clic per veure les observacions i els pronòstics meteorològics.

Per canviar el mapa: feu clic els botons verds amb una creu de color negre per apropar; al botó verd amb un guió per allunyar la imatge; o en les fletxes verdes per a mapes adjacents.


METAR-TAF: